createdAt,value
2022-12-13T00:01:57.954Z,56.00
2022-12-13T00:04:27.135Z,53.00
2022-12-13T00:06:54.904Z,47.50
2022-12-13T00:09:23.756Z,45.00
2022-12-13T00:11:52.349Z,51.00
2022-12-13T00:14:20.153Z,51.00
2022-12-13T00:16:50.701Z,50.33
2022-12-13T00:19:19.745Z,43.00
2022-12-13T00:21:49.091Z,49.67
2022-12-13T00:24:16.917Z,58.50
2022-12-13T00:26:46.438Z,66.33
2022-12-13T00:29:15.201Z,51.50
2022-12-13T00:31:59.416Z,60.50
2022-12-13T00:34:29.664Z,53.00
2022-12-13T00:36:59.565Z,51.00
2022-12-13T00:39:28.236Z,55.50
2022-12-13T00:41:56.500Z,51.50
2022-12-13T00:44:24.676Z,42.50
2022-12-13T00:46:54.743Z,67.33
2022-12-13T00:49:23.899Z,68.00
2022-12-13T00:51:52.683Z,65.50
2022-12-13T00:54:21.427Z,63.50
2022-12-13T00:56:51.710Z,60.00
2022-12-13T00:59:20.625Z,72.50
2022-12-13T01:01:49.635Z,81.00
2022-12-13T01:04:18.369Z,74.50
2022-12-13T01:06:50.154Z,56.50
2022-12-13T01:09:29.988Z,67.00
2022-12-13T01:12:05.962Z,52.50
2022-12-13T01:14:38.166Z,57.50
2022-12-13T01:17:08.213Z,64.00
2022-12-13T01:19:37.700Z,66.33
2022-12-13T01:22:07.967Z,54.00
2022-12-13T01:24:36.973Z,66.50
2022-12-13T01:27:05.802Z,53.50
2022-12-13T01:29:34.507Z,52.00
2022-12-13T01:32:03.198Z,53.00
2022-12-13T01:34:31.014Z,55.00
2022-12-13T01:36:59.034Z,65.00
2022-12-13T01:39:28.865Z,53.00
2022-12-13T01:41:59.994Z,52.00
2022-12-13T01:44:56.518Z,58.00
2022-12-13T01:47:49.599Z,50.50
2022-12-13T01:50:33.263Z,55.00
2022-12-13T01:53:03.282Z,61.00
2022-12-13T01:55:41.551Z,55.00
2022-12-13T01:58:09.706Z,55.00
2022-12-13T02:00:40.887Z,61.00
2022-12-13T02:03:21.459Z,61.00
2022-12-13T02:06:09.671Z,49.50
2022-12-13T02:08:39.853Z,50.00
2022-12-13T02:11:08.349Z,46.50
2022-12-13T02:13:38.900Z,55.00
2022-12-13T02:16:35.982Z,55.50
2022-12-13T02:20:00.615Z,55.00
2022-12-13T02:23:09.923Z,55.00
2022-12-13T02:26:40.787Z,50.00
2022-12-13T02:29:49.429Z,63.00
2022-12-13T02:32:38.055Z,57.00
2022-12-13T02:35:11.482Z,56.00
2022-12-13T02:38:14.333Z,56.00
2022-12-13T02:41:27.834Z,58.50
2022-12-13T02:44:21.807Z,63.50
2022-12-13T02:47:39.829Z,61.50
2022-12-13T02:50:11.364Z,61.50
2022-12-13T02:52:43.102Z,53.00
2022-12-13T02:55:16.493Z,66.50
2022-12-13T02:57:48.665Z,64.00
2022-12-13T03:00:23.860Z,51.50
2022-12-13T03:03:24.241Z,65.33
2022-12-13T03:06:33.696Z,64.00
2022-12-13T03:09:49.118Z,57.50
2022-12-13T03:13:07.182Z,54.50
2022-12-13T03:15:57.025Z,53.00
2022-12-13T03:18:30.869Z,57.00
2022-12-13T03:21:07.124Z,63.50
2022-12-13T03:23:38.176Z,60.00
2022-12-13T03:26:24.934Z,53.00
2022-12-13T03:29:03.130Z,55.00
2022-12-13T03:31:56.618Z,25.33
2022-12-13T03:34:25.417Z,64.00
2022-12-13T03:37:11.728Z,55.00
2022-12-13T03:39:40.522Z,66.50
2022-12-13T03:42:09.503Z,61.00
2022-12-13T03:44:38.201Z,63.50
2022-12-13T03:47:06.919Z,58.50
2022-12-13T03:49:35.872Z,68.50
2022-12-13T03:52:03.907Z,63.50
2022-12-13T03:54:33.420Z,66.00
2022-12-13T03:57:02.015Z,75.50
2022-12-13T03:59:29.876Z,61.00
2022-12-13T04:01:58.569Z,62.50
2022-12-13T04:04:27.255Z,62.00
2022-12-13T04:06:55.980Z,58.00
2022-12-13T04:09:24.745Z,54.00
2022-12-13T04:12:11.134Z,67.00
2022-12-13T04:14:38.890Z,57.50
2022-12-13T04:17:07.621Z,62.50
2022-12-13T04:19:37.071Z,53.33
2022-12-13T04:22:05.829Z,59.00
2022-12-13T04:24:34.594Z,62.00
2022-12-13T04:27:02.903Z,48.50
2022-12-13T04:29:33.719Z,54.50
2022-12-13T04:32:05.076Z,51.50
2022-12-13T04:34:37.538Z,66.50
2022-12-13T04:37:06.335Z,63.50
2022-12-13T04:39:35.508Z,61.00
2022-12-13T04:42:03.504Z,68.00
2022-12-13T04:44:36.819Z,66.00
2022-12-13T04:47:05.549Z,62.00
2022-12-13T04:49:35.271Z,55.00
2022-12-13T04:52:03.402Z,35.00
2022-12-13T04:54:36.063Z,57.50
2022-12-13T04:57:11.790Z,60.50
2022-12-13T04:59:40.837Z,72.50
2022-12-13T05:02:11.257Z,69.50
2022-12-13T05:04:40.075Z,57.50
2022-12-13T05:07:07.939Z,59.50
2022-12-13T05:09:36.730Z,70.00
2022-12-13T05:12:22.014Z,84.00
2022-12-13T05:14:54.046Z,87.00
2022-12-13T05:17:23.178Z,75.00
2022-12-13T05:19:52.720Z,73.33
2022-12-13T05:22:21.498Z,70.00
2022-12-13T05:24:50.609Z,75.00
2022-12-13T05:27:25.612Z,63.50
2022-12-13T05:30:02.771Z,70.50
2022-12-13T05:32:43.348Z,58.00
2022-12-13T05:35:22.262Z,75.50
2022-12-13T05:37:53.772Z,67.00
2022-12-13T05:40:27.761Z,67.00
2022-12-13T05:43:01.674Z,52.50
2022-12-13T05:45:33.745Z,69.50
2022-12-13T05:48:02.569Z,69.00
2022-12-13T05:50:31.411Z,68.00
2022-12-13T05:53:00.216Z,76.50
2022-12-13T05:55:28.933Z,68.00
2022-12-13T05:58:02.432Z,71.50
2022-12-13T06:00:31.986Z,79.00
2022-12-13T06:03:01.725Z,71.50
2022-12-13T06:05:31.295Z,69.50
2022-12-13T06:07:59.545Z,68.50
2022-12-13T06:10:35.042Z,88.33
2022-12-13T06:13:22.117Z,60.00
2022-12-13T06:16:01.972Z,61.00
2022-12-13T06:18:34.490Z,67.00
2022-12-13T06:21:07.336Z,64.50
2022-12-13T06:23:36.167Z,70.00
2022-12-13T06:26:07.588Z,71.00
2022-12-13T06:28:36.441Z,65.33
2022-12-13T06:31:05.538Z,67.00
2022-12-13T06:33:39.153Z,109.00
2022-12-13T06:36:09.024Z,67.00
2022-12-13T06:38:43.503Z,44.00
2022-12-13T06:41:16.939Z,62.00
2022-12-13T06:43:47.847Z,72.00
2022-12-13T06:46:16.936Z,72.50
2022-12-13T06:48:45.202Z,63.50
2022-12-13T06:51:13.188Z,69.00
2022-12-13T06:53:51.804Z,70.00
2022-12-13T06:56:20.578Z,47.33
2022-12-13T06:58:48.600Z,69.50
2022-12-13T07:01:24.261Z,74.00
2022-12-13T07:03:56.724Z,67.00
2022-12-13T07:06:26.400Z,69.50
2022-12-13T07:08:58.301Z,70.00
2022-12-13T07:11:33.347Z,67.00
2022-12-13T07:14:02.113Z,60.50
2022-12-13T07:16:30.121Z,76.00
2022-12-13T07:19:01.876Z,74.00
2022-12-13T07:21:32.334Z,75.00
2022-12-13T07:24:02.228Z,64.50
2022-12-13T07:26:30.099Z,75.00
2022-12-13T07:28:57.959Z,69.50
2022-12-13T07:31:26.864Z,74.00
2022-12-13T07:33:56.480Z,98.33
2022-12-13T07:36:24.873Z,78.50
2022-12-13T07:38:57.435Z,71.50
2022-12-13T07:41:27.736Z,71.50
2022-12-13T07:43:57.381Z,94.33
2022-12-13T07:46:32.525Z,98.33
2022-12-13T07:49:05.123Z,84.33
2022-12-13T07:51:35.755Z,83.00
2022-12-13T07:54:06.262Z,81.67
2022-12-13T07:56:36.484Z,81.50
2022-12-13T07:59:05.577Z,81.50
2022-12-13T08:01:35.495Z,73.67
2022-12-13T08:04:05.551Z,77.33
2022-12-13T08:06:39.572Z,74.00
2022-12-13T08:09:08.237Z,74.50
2022-12-13T08:11:37.020Z,74.00
2022-12-13T08:14:07.362Z,86.67
2022-12-13T08:16:37.022Z,89.67
2022-12-13T08:19:06.599Z,94.33
2022-12-13T08:22:01.796Z,87.00
2022-12-13T08:24:31.876Z,66.50
2022-12-13T08:27:03.440Z,66.00
2022-12-13T08:29:36.477Z,73.50
2022-12-13T08:32:10.774Z,87.00
2022-12-13T08:34:41.465Z,75.00
2022-12-13T08:37:09.712Z,63.00
2022-12-13T08:39:39.368Z,71.00
2022-12-13T08:42:19.427Z,78.00
2022-12-13T08:44:52.324Z,76.00
2022-12-13T08:47:26.881Z,76.33
2022-12-13T08:50:01.933Z,67.50
2022-12-13T08:52:40.606Z,67.50
2022-12-13T08:55:15.725Z,62.50
2022-12-13T08:57:45.664Z,63.50
2022-12-13T09:00:20.023Z,68.33
2022-12-13T09:02:49.594Z,52.67
2022-12-13T09:05:34.149Z,50.50
2022-12-13T09:08:23.123Z,47.50
2022-12-13T09:11:11.462Z,53.00
2022-12-13T09:13:52.875Z,42.67
2022-12-13T09:16:35.671Z,40.00
2022-12-13T09:19:25.467Z,41.50
2022-12-13T09:22:02.804Z,34.00
2022-12-13T09:24:35.795Z,41.50
2022-12-13T09:27:09.601Z,57.67
2022-12-13T09:29:39.699Z,54.67
2022-12-13T09:32:09.234Z,46.00
2022-12-13T09:34:39.503Z,42.00
2022-12-13T09:37:09.252Z,48.67
2022-12-13T09:39:38.771Z,56.67
2022-12-13T09:42:23.026Z,60.50
2022-12-13T09:45:05.469Z,57.00
2022-12-13T09:47:47.535Z,47.00
2022-12-13T09:50:38.511Z,40.00
2022-12-13T09:53:12.050Z,37.00
2022-12-13T09:55:52.555Z,34.00
2022-12-13T09:58:31.904Z,61.33
2022-12-13T10:01:00.709Z,46.00
2022-12-13T10:03:30.021Z,40.50
2022-12-13T10:06:09.212Z,48.00
2022-12-13T10:08:57.695Z,41.50
2022-12-13T10:11:31.384Z,54.00
2022-12-13T10:14:36.667Z,40.00
2022-12-13T10:17:09.479Z,44.00
2022-12-13T10:19:46.732Z,51.67
2022-12-13T10:22:19.915Z,33.50
2022-12-13T10:25:06.114Z,35.00
2022-12-13T10:27:45.532Z,29.00
2022-12-13T10:30:29.006Z,45.50
2022-12-13T10:33:01.512Z,41.00
2022-12-13T10:35:38.165Z,37.00
2022-12-13T10:38:16.756Z,45.33
2022-12-13T10:40:46.727Z,30.50
2022-12-13T10:43:21.168Z,33.50
2022-12-13T10:46:04.179Z,36.00
2022-12-13T10:48:41.305Z,36.00
2022-12-13T10:51:18.721Z,32.50
2022-12-13T10:53:55.415Z,28.50
2022-12-13T10:56:37.712Z,32.00
2022-12-13T10:59:38.773Z,26.50
2022-12-13T11:02:37.794Z,33.00
2022-12-13T11:05:33.464Z,39.00
2022-12-13T11:08:27.057Z,30.00
2022-12-13T11:11:04.522Z,37.50
2022-12-13T11:13:57.141Z,24.00
2022-12-13T11:16:35.649Z,31.50
2022-12-13T11:19:18.820Z,34.50
2022-12-13T11:21:50.954Z,36.50
2022-12-13T11:24:36.148Z,30.00
2022-12-13T11:28:26.636Z,32.00
2022-12-13T11:31:07.981Z,29.67
2022-12-13T11:34:42.451Z,33.50
2022-12-13T11:38:11.253Z,43.00
2022-12-13T11:40:46.740Z,28.00
2022-12-13T11:43:42.690Z,28.00
2022-12-13T11:46:20.993Z,15.00
2022-12-13T11:49:20.755Z,21.67
2022-12-13T11:52:00.177Z,24.50
2022-12-13T11:55:20.553Z,22.33
2022-12-13T11:58:16.651Z,28.50
2022-12-13T12:01:07.034Z,24.00
2022-12-13T12:03:48.330Z,58.50
2022-12-13T12:06:43.855Z,19.33
2022-12-13T12:09:19.456Z,44.50
2022-12-13T12:12:11.928Z,34.50
2022-12-13T12:15:05.185Z,25.50
2022-12-13T12:17:44.927Z,23.33
2022-12-13T12:20:40.688Z,25.00
2022-12-13T12:23:44.381Z,37.50
2022-12-13T12:26:18.718Z,21.00
2022-12-13T12:29:26.124Z,13.50
2022-12-13T12:32:20.558Z,23.00
2022-12-13T12:35:34.194Z,31.50
2022-12-13T12:38:44.657Z,23.00
2022-12-13T12:41:53.081Z,35.50
2022-12-13T12:44:34.124Z,31.00
2022-12-13T12:50:48.838Z,28.00
2022-12-13T12:54:08.449Z,34.00
2022-12-13T12:57:17.300Z,25.00
2022-12-13T13:00:21.916Z,32.50
2022-12-13T13:03:12.075Z,34.50
2022-12-13T13:06:06.899Z,48.50
2022-12-13T13:08:56.829Z,55.33
2022-12-13T13:11:31.413Z,33.50
2022-12-13T13:14:03.034Z,37.00
2022-12-13T13:16:39.626Z,40.67
2022-12-13T13:19:17.452Z,33.00
2022-12-13T13:22:01.671Z,36.50
2022-12-13T13:24:34.832Z,46.67
2022-12-13T13:27:10.376Z,43.00
2022-12-13T13:29:43.471Z,27.33
2022-12-13T13:32:28.326Z,40.00
2022-12-13T13:35:43.007Z,37.50
2022-12-13T13:38:49.934Z,26.00
2022-12-13T13:41:56.774Z,31.00
2022-12-13T13:44:45.848Z,31.50
2022-12-13T13:47:41.302Z,30.50
2022-12-13T13:50:08.992Z,30.00
2022-12-13T13:53:29.583Z,32.67
2022-12-13T13:56:32.628Z,36.50
2022-12-13T13:59:54.323Z,60.50
2022-12-13T14:03:33.171Z,53.00
2022-12-13T14:07:00.736Z,93.33
2022-12-13T14:10:19.532Z,28.50
2022-12-13T14:13:46.698Z,46.00
2022-12-13T14:16:48.694Z,39.00
2022-12-13T14:20:22.003Z,37.50
2022-12-13T14:23:21.888Z,40.50
2022-12-13T14:26:44.261Z,50.00
2022-12-13T14:29:32.176Z,54.00
2022-12-13T14:32:01.371Z,49.00
2022-12-13T14:34:34.551Z,61.00
2022-12-13T14:37:24.009Z,66.50
2022-12-13T14:39:52.834Z,69.00
2022-12-13T14:42:34.354Z,66.50
2022-12-13T14:45:37.457Z,71.67
2022-12-13T14:48:28.075Z,74.67
2022-12-13T14:50:58.580Z,80.00
2022-12-13T14:53:43.015Z,76.33
2022-12-13T14:56:28.398Z,66.50
2022-12-13T14:59:01.589Z,60.00
2022-12-13T15:01:40.642Z,68.67
2022-12-13T15:04:35.061Z,55.50
2022-12-13T15:07:28.606Z,58.00
2022-12-13T15:10:19.156Z,48.50
2022-12-13T15:12:49.390Z,53.50
2022-12-13T15:15:36.609Z,53.50
2022-12-13T15:18:13.138Z,57.00
2022-12-13T15:20:43.127Z,53.67
2022-12-13T15:23:21.476Z,59.67
2022-12-13T15:26:28.436Z,48.50
2022-12-13T15:29:10.325Z,56.00
2022-12-13T15:31:40.878Z,64.00
2022-12-13T15:34:30.615Z,66.50
2022-12-13T15:37:03.714Z,85.50
2022-12-13T15:39:41.677Z,83.00
2022-12-13T15:42:33.999Z,58.67
2022-12-13T15:45:16.152Z,72.50
2022-12-13T15:47:47.135Z,66.00
2022-12-13T15:50:50.959Z,78.50
2022-12-13T15:53:29.555Z,81.67
2022-12-13T15:56:01.189Z,89.33
2022-12-13T15:58:37.329Z,103.00
2022-12-13T16:01:06.997Z,91.67
2022-12-13T16:03:46.945Z,104.00
2022-12-13T16:06:22.885Z,93.33
2022-12-13T16:09:01.124Z,100.33
2022-12-13T16:12:01.339Z,98.00
2022-12-13T16:14:49.685Z,96.00
2022-12-13T16:17:32.074Z,95.33
2022-12-13T16:20:07.873Z,101.00
2022-12-13T16:22:39.193Z,95.33
2022-12-13T16:25:19.025Z,95.67
2022-12-13T16:27:49.283Z,96.00
2022-12-13T16:31:35.922Z,90.33
2022-12-13T16:34:07.214Z,107.00
2022-12-13T16:36:37.282Z,107.00
2022-12-13T16:39:11.219Z,101.33
2022-12-13T16:41:46.179Z,107.67
2022-12-13T16:44:37.580Z,101.67
2022-12-13T16:47:22.329Z,104.67
2022-12-13T16:49:54.145Z,109.33
2022-12-13T16:52:23.983Z,150.00
2022-12-13T16:54:53.754Z,229.50
2022-12-13T16:57:23.500Z,127.00
2022-12-13T16:59:53.819Z,102.00
2022-12-13T17:02:23.673Z,107.00
2022-12-13T17:04:53.212Z,103.33
2022-12-13T17:07:22.878Z,104.67
2022-12-13T17:09:52.446Z,111.00
2022-12-13T17:12:24.882Z,98.67
2022-12-13T17:14:55.195Z,99.00
2022-12-13T17:17:24.811Z,115.00
2022-12-13T17:19:54.753Z,131.67
2022-12-13T17:22:25.059Z,108.67
2022-12-13T17:24:54.889Z,113.67
2022-12-13T17:27:24.507Z,122.00
2022-12-13T17:29:54.172Z,117.33
2022-12-13T17:32:25.439Z,106.00
2022-12-13T17:34:56.081Z,132.00
2022-12-13T17:37:25.733Z,125.33
2022-12-13T17:39:55.313Z,113.67
2022-12-13T17:42:25.990Z,112.67
2022-12-13T17:44:55.701Z,157.67
2022-12-13T17:47:26.761Z,176.75
2022-12-13T17:49:57.317Z,194.00
2022-12-13T17:52:26.979Z,200.33
2022-12-13T17:54:56.787Z,225.33
2022-12-13T17:57:27.270Z,159.25
2022-12-13T17:59:57.843Z,201.00
2022-12-13T18:02:27.708Z,150.67
2022-12-13T18:04:57.438Z,148.00
2022-12-13T18:07:27.098Z,145.33
2022-12-13T18:09:56.830Z,138.33
2022-12-13T18:12:27.426Z,161.33
2022-12-13T18:14:57.896Z,168.25
2022-12-13T18:17:46.555Z,163.75
2022-12-13T18:20:19.290Z,195.25
2022-12-13T18:22:51.565Z,194.75
2022-12-13T18:25:21.416Z,223.33
2022-12-13T18:27:53.832Z,214.33
2022-12-13T18:30:28.261Z,188.75
2022-12-13T18:32:59.545Z,248.50
2022-12-13T18:35:30.198Z,168.00
2022-12-13T18:37:59.786Z,117.33
2022-12-13T18:40:29.323Z,109.67
2022-12-13T18:42:58.147Z,74.00
2022-12-13T18:45:26.011Z,74.50
2022-12-13T18:47:55.479Z,88.33
2022-12-13T18:50:25.602Z,99.67
2022-12-13T18:52:55.150Z,94.00
2022-12-13T18:55:25.216Z,96.67
2022-12-13T18:57:56.290Z,111.33
2022-12-13T19:00:27.062Z,116.33
2022-12-13T19:02:57.176Z,130.00
2022-12-13T19:05:27.065Z,152.33
2022-12-13T19:07:56.784Z,240.67
2022-12-13T19:10:26.825Z,261.00
2022-12-13T19:12:56.565Z,343.67
2022-12-13T19:15:26.344Z,310.00
2022-12-13T19:17:56.081Z,326.33
2022-12-13T19:20:25.952Z,296.33
2022-12-13T19:22:55.733Z,307.67
2022-12-13T19:25:25.482Z,295.67
2022-12-13T19:27:56.915Z,264.33
2022-12-13T19:30:26.903Z,265.00
2022-12-13T19:32:57.367Z,193.25
2022-12-13T19:35:27.908Z,189.25
2022-12-13T19:37:58.439Z,200.25
2022-12-13T19:40:28.606Z,175.67
2022-12-13T19:42:59.110Z,203.25
2022-12-13T19:45:29.583Z,198.00
2022-12-13T19:47:59.318Z,223.33
2022-12-13T19:50:30.883Z,195.25
2022-12-13T19:53:00.624Z,206.00
2022-12-13T19:55:31.133Z,186.25
2022-12-13T19:58:01.925Z,155.67
2022-12-13T20:00:31.633Z,144.67
2022-12-13T20:03:01.377Z,207.67
2022-12-13T20:05:31.148Z,178.00
2022-12-13T20:08:01.744Z,195.00
2022-12-13T20:10:35.249Z,167.75
2022-12-13T20:13:06.187Z,219.25
2022-12-13T20:15:36.695Z,209.25
2022-12-13T20:18:06.562Z,291.33
2022-12-13T20:21:02.424Z,201.00
2022-12-13T20:23:27.104Z,219.00
2022-12-13T20:26:08.013Z,218.67
2022-12-13T20:28:38.575Z,243.67
2022-12-13T20:31:14.683Z,136.67
2022-12-13T20:33:44.560Z,146.67
2022-12-13T20:36:24.813Z,100.33
2022-12-13T20:39:01.833Z,103.33
2022-12-13T20:41:34.725Z,95.00
2022-12-13T20:44:10.748Z,83.67
2022-12-13T20:46:40.937Z,94.33
2022-12-13T20:49:10.847Z,98.67
2022-12-13T20:51:42.194Z,101.67
2022-12-13T20:54:11.851Z,106.33
2022-12-13T20:56:41.818Z,133.00
2022-12-13T20:59:14.743Z,125.67
2022-12-13T21:01:48.834Z,126.67
2022-12-13T21:04:19.148Z,108.33
2022-12-13T21:06:49.002Z,123.67
2022-12-13T21:09:18.736Z,114.67
2022-12-13T21:11:50.366Z,114.67
2022-12-13T21:14:28.562Z,114.00
2022-12-13T21:17:09.743Z,123.33
2022-12-13T21:19:41.061Z,172.33
2022-12-13T21:22:10.764Z,126.00
2022-12-13T21:24:40.553Z,151.00
2022-12-13T21:27:10.201Z,118.67
2022-12-13T21:29:38.827Z,96.67
2022-12-13T21:32:08.647Z,91.67
2022-12-13T21:34:38.255Z,95.67
2022-12-13T21:37:06.998Z,78.00
2022-12-13T21:39:36.672Z,84.33
2022-12-13T21:42:06.222Z,78.33
2022-12-13T21:44:34.972Z,69.00
2022-12-13T21:47:13.101Z,140.67
2022-12-13T21:49:48.540Z,64.00
2022-12-13T21:52:18.612Z,112.67
2022-12-13T21:54:47.386Z,79.00
2022-12-13T21:57:35.513Z,90.33
2022-12-13T22:00:06.442Z,118.00
2022-12-13T22:02:36.117Z,100.00
2022-12-13T22:05:06.887Z,136.33
2022-12-13T22:07:35.611Z,79.60
2022-12-13T22:10:05.938Z,155.67
2022-12-13T22:12:40.888Z,98.00
2022-12-13T22:15:15.644Z,152.00
2022-12-13T22:17:45.452Z,115.67
2022-12-13T22:20:15.923Z,106.67
2022-12-13T22:22:48.652Z,95.33
2022-12-13T22:25:18.987Z,129.67
2022-12-13T22:27:47.753Z,94.80
2022-12-13T22:30:17.452Z,106.67
2022-12-13T22:32:47.137Z,100.67
2022-12-13T22:35:16.900Z,108.33
2022-12-13T22:37:50.122Z,94.67
2022-12-13T22:40:19.707Z,103.67
2022-12-13T22:42:49.286Z,104.00
2022-12-13T22:45:18.916Z,95.33
2022-12-13T22:47:47.491Z,88.67
2022-12-13T22:50:20.258Z,89.67
2022-12-13T22:52:49.789Z,90.67
2022-12-13T22:55:18.510Z,80.50
2022-12-13T22:57:48.522Z,97.67
2022-12-13T23:00:18.717Z,111.33
2022-12-13T23:02:48.592Z,92.33
2022-12-13T23:05:17.579Z,80.50
2022-12-13T23:07:48.570Z,89.33
2022-12-13T23:10:36.042Z,66.67
2022-12-13T23:13:04.789Z,50.00
2022-12-13T23:15:38.872Z,91.00
2022-12-13T23:18:08.417Z,83.67
2022-12-13T23:20:38.009Z,91.67
2022-12-13T23:23:07.604Z,96.67
2022-12-13T23:25:36.181Z,85.00
2022-12-13T23:28:05.448Z,69.00
2022-12-13T23:30:37.319Z,84.00
2022-12-13T23:33:06.107Z,79.50
2022-12-13T23:35:35.754Z,100.33
2022-12-13T23:38:05.285Z,90.33
2022-12-13T23:40:33.999Z,81.00
2022-12-13T23:43:02.567Z,91.00
2022-12-13T23:45:31.238Z,85.67
2022-12-13T23:48:00.801Z,90.67
2022-12-13T23:50:30.671Z,99.00
2022-12-13T23:53:00.159Z,90.33
2022-12-13T23:55:29.658Z,96.67
2022-12-13T23:57:58.202Z,90.67
